Etusivu
METAR-TAF:

METAR-TAF

Lentoasemat :

Kokkola-Pietarsaaren lentoasema

Kokkola, Suomi

Leveyspiiri: 63-43N, Pituuspiiri: 023-09E, korkeus merenpinnasta: 25 m

Tämänhetkinen sää

Tämä raportti tehtiin 27 minuuttia sitten, kello 01.50 UTC
Tuuli 6 kn pohjoisesta/koillisesta
Lämpötila 0°C
Kosteus 100%
Ilmanpaine 1012 hPa
Näkyvyys 10 km tai enemmän
Pilvistä 200 ft:n korkeudessa

METAR: EFKK 110150Z AUTO 02006KT 9999 OVC002 00/M00 Q1012

Aika: 04:17 (02:17 UTC)

Sääennuste

Tämä raportti tehtiin 3 tuntia ja 29 minuuttia sitten, kello 22.48 UTC
Ennuste voimassa 10. päivästä klo 22 UTC - 10. päivään klo 24 UTC
Tuuli 5 kn pohjoisesta/koillisesta
Näkyvyys 10 km tai enemmän
Pilvistä 900 ft:n korkeudessa
Todennäköisyys 30% :
Ajoittain
10. päivästä klo 22 UTC - 10. päivään klo 24 UTC
Näkyvyys: 6000 m
Hajonneita pilviä 300 ft:n korkeudessa
heikkoa lumisadetta

TAF: EFKK 102248Z 1022/1024 03005KT 9999 OVC009 PROB30 TEMPO 1022/1024 6000 -SN BKN003

Säähavainnot ja -ennusteet yli 4000 lentoasemalta (METAR- ja TAF-raportit).

Käytössä olevat sääasemat on merkitty karttaan keltaisilla ja punaisilla pisteillä.

Aseta hiiri pisteen päälle nähdäksesi sääaseman nimen.

Klikkaa sitten nähdäksesi säähavainnot ja -ennusteet.

Kartan vaihtaminen: klikkaa mustalla rastilla varustettuja vihreitä pisteitä, niin voit zoomata sisään; viivalla varustettua vihreää pistettä, niin voit zoomata ulos tai vihreitä nuolia, niin pääset viereisille kartoille.


METAR-TAF: